Liberty, Kansas
Current Conditions -  °F | °C
As of 1:52 PM on Thursday 23 Oct 2014 (Local Time) from KCFV Reporting Station
Light Rain Light Rain  
Wind Chill: 63°   Ceiling: 1400
Heat Index: 63°   Visibility: 10mi
Dew Point: 57°   Wind: 13mph
Humidity: 81%   Direction: 190°S
Pressure: 30.11"   Gusts: NA
Location:  37.16°N, 95.59°W
Report Text: KCFV 231852Z AUTO 19011KT 10SM -RA OVC014 17/14 A3011 RMK AO2 SLP195 P0000 T01720139
Loading
Personal Weather Stations






























Interactive Weather Map New forecast layout! Learn more

10-Day Weather Forecast

Advertisements
Track Severe Weather on mobile